Time;durP1;ratioP1;P1;durP2;ratioP2;P2;SDS_P1;SDS_P2;PMS_P1;PMS_P2;Temp;Humidity;BMP_temperature;BMP_pressure;BME280_temperature;BME280_humidity;BME280_pressure;Samples;Min_cycle;Max_cycle;Signal;HPM_P1;HPM_P2
2022/07/03 00:02:09;;;;;;;4.47;3.08;;;14.80;99.90;;;;;;5035695;28;20405;-94
2022/07/03 00:04:34;;;;;;;3.08;2.80;;;14.70;99.90;;;;;;5034765;28;20029;-94
2022/07/03 00:07:00;;;;;;;3.38;2.75;;;14.70;99.90;;;;;;5034597;28;20026;-94
2022/07/03 00:09:26;;;;;;;2.70;2.50;;;14.60;99.90;;;;;;5035736;28;20025;-94
2022/07/03 00:11:52;;;;;;;6.82;2.92;;;14.60;99.90;;;;;;5030221;28;20075;-95
2022/07/03 00:14:18;;;;;;;3.40;3.10;;;14.50;99.90;;;;;;5034278;28;20040;-94
2022/07/03 00:16:44;;;;;;;3.13;2.92;;;14.50;99.90;;;;;;5038218;28;20056;-94
2022/07/03 00:19:10;;;;;;;4.03;3.42;;;14.40;99.90;;;;;;5036069;28;20041;-95
2022/07/03 00:21:43;;;;;;;3.05;2.85;;;14.40;99.90;;;;;;5036667;28;20037;-95
2022/07/03 00:24:34;;;;;;;3.35;3.08;;;14.40;99.90;;;;;;5035569;28;20124;-94
2022/07/03 00:27:01;;;;;;;3.25;2.95;;;14.30;99.90;;;;;;5027155;28;20034;-96
2022/07/03 00:29:36;;;;;;;3.67;3.35;;;14.30;99.90;;;;;;5033261;28;20030;-94
2022/07/03 00:32:02;;;;;;;3.92;3.53;;;14.20;99.90;;;;;;5031385;28;20120;-94
2022/07/03 00:34:29;;;;;;;5.15;3.47;;;14.20;99.90;;;;;;5034249;28;20068;-95
2022/07/03 00:37:00;;;;;;;3.47;3.17;;;14.10;99.90;;;;;;5034134;28;20116;-94
2022/07/03 00:39:26;;;;;;;3.47;3.17;;;14.00;99.90;;;;;;5033422;28;20294;-95
2022/07/03 00:42:03;;;;;;;4.25;3.05;;;13.90;99.90;;;;;;5032009;28;20116;-94
2022/07/03 00:44:30;;;;;;;4.18;3.58;;;13.80;99.90;;;;;;5033327;28;20096;-94
2022/07/03 00:46:56;;;;;;;5.68;3.60;;;13.70;99.90;;;;;;5031900;28;20075;-94
2022/07/03 00:49:25;;;;;;;4.22;3.28;;;13.60;99.90;;;;;;5039692;28;20026;-95
2022/07/03 00:51:52;;;;;;;4.43;4.10;;;13.50;99.90;;;;;;5034398;28;20112;-94
2022/07/03 00:54:21;;;;;;;4.03;3.72;;;13.40;99.90;;;;;;5034437;28;20152;-94
2022/07/03 00:56:54;;;;;;;4.80;4.40;;;13.40;99.90;;;;;;5043103;28;20026;-94
2022/07/03 00:59:20;;;;;;;4.68;4.38;;;13.30;99.90;;;;;;5035514;28;20022;-94
2022/07/03 01:01:52;;;;;;;4.40;4.00;;;13.30;99.90;;;;;;5036179;28;20451;-94
2022/07/03 01:04:39;;;;;;;4.07;3.63;;;13.30;99.90;;;;;;5040057;28;20029;-95
2022/07/03 01:07:18;;;;;;;3.72;3.42;;;13.20;99.90;;;;;;5035085;28;20018;-94
2022/07/03 01:10:11;;;;;;;4.10;3.80;;;13.20;99.90;;;;;;5033461;28;20060;-94
2022/07/03 01:12:51;;;;;;;4.63;4.30;;;13.20;99.90;;;;;;5023254;28;20437;-94
2022/07/03 01:15:44;;;;;;;4.40;4.00;;;13.20;99.90;;;;;;5034229;28;20159;-94
2022/07/03 01:18:30;;;;;;;3.70;3.40;;;13.20;99.90;;;;;;5017923;28;20042;-94
2022/07/03 01:21:07;;;;;;;4.50;4.20;;;13.10;99.90;;;;;;5034053;28;20144;-95
2022/07/03 01:23:46;;;;;;;4.38;4.03;;;13.00;99.90;;;;;;5036979;28;20056;-95
2022/07/03 01:26:14;;;;;;;4.20;3.80;;;13.00;99.90;;;;;;5037699;28;20073;-94
2022/07/03 01:28:45;;;;;;;4.30;3.67;;;12.90;99.90;;;;;;5033772;28;20034;-94
2022/07/03 01:31:20;;;;;;;4.97;4.57;;;12.90;99.90;;;;;;5035979;28;20393;-94
2022/07/03 01:33:49;;;;;;;4.90;4.13;;;12.80;99.90;;;;;;5035956;28;20029;-94
2022/07/03 01:36:17;;;;;;;3.83;3.50;;;12.80;99.90;;;;;;5031361;28;20026;-95
2022/07/03 01:38:43;;;;;;;4.03;3.72;;;12.80;99.90;;;;;;5035354;28;20096;-94
2022/07/03 01:41:11;;;;;;;3.15;2.92;;;12.80;99.90;;;;;;5031980;28;20116;-95
2022/07/03 01:43:44;;;;;;;3.42;2.97;;;12.90;99.90;;;;;;5033603;28;20123;-94
2022/07/03 01:46:12;;;;;;;3.58;2.88;;;12.90;99.90;;;;;;5032782;28;20026;-94
2022/07/03 01:48:42;;;;;;;3.90;3.60;;;12.90;99.90;;;;;;5033369;28;20083;-94
2022/07/03 01:51:13;;;;;;;4.35;4.05;;;12.90;99.90;;;;;;5034909;28;20071;-94
2022/07/03 01:53:46;;;;;;;4.38;3.97;;;12.90;99.90;;;;;;5033126;28;20116;-94
2022/07/03 01:56:12;;;;;;;4.05;3.72;;;12.90;99.90;;;;;;5030225;28;20482;-94
2022/07/03 01:58:38;;;;;;;3.65;3.35;;;12.90;99.90;;;;;;5032105;28;20037;-94
2022/07/03 02:01:30;;;;;;;3.95;3.65;;;12.80;99.90;;;;;;5028749;28;20116;-94
2022/07/03 02:04:04;;;;;;;4.85;3.55;;;12.80;99.90;;;;;;5031289;28;20048;-94
2022/07/03 02:06:51;;;;;;;5.13;4.72;;;12.80;99.90;;;;;;5034395;28;20481;-94
2022/07/03 02:09:24;;;;;;;6.13;4.68;;;12.80;99.90;;;;;;5034937;28;20029;-94
2022/07/03 02:11:50;;;;;;;4.07;3.78;;;12.70;99.90;;;;;;5031818;28;20026;-95
2022/07/03 02:14:24;;;;;;;4.57;3.72;;;12.70;99.90;;;;;;5033450;28;20103;-96
2022/07/03 02:16:58;;;;;;;6.10;3.80;;;12.60;99.90;;;;;;5032384;28;20068;-94
2022/07/03 02:19:41;;;;;;;4.35;3.95;;;12.60;99.90;;;;;;5034722;28;20061;-94
2022/07/03 02:22:08;;;;;;;4.22;3.25;;;12.60;99.90;;;;;;5038294;28;20391;-95
2022/07/03 02:24:43;;;;;;;3.88;3.55;;;12.60;99.90;;;;;;5021719;28;20024;-94
2022/07/03 02:27:17;;;;;;;5.20;3.47;;;12.50;99.90;;;;;;5032077;28;20049;-94
2022/07/03 02:30:04;;;;;;;4.65;3.30;;;12.50;99.90;;;;;;5028806;28;20083;-93
2022/07/03 02:32:36;;;;;;;4.70;3.42;;;12.40;99.90;;;;;;5033592;28;20075;-93
2022/07/03 02:35:05;;;;;;;3.75;3.45;;;12.30;99.90;;;;;;5029597;28;20655;-94
2022/07/03 02:37:47;;;;;;;4.45;4.05;;;12.20;99.90;;;;;;5032289;28;20037;-93
2022/07/03 02:40:32;;;;;;;4.70;4.35;;;12.10;99.90;;;;;;5049205;28;20030;-94
2022/07/03 02:43:01;;;;;;;4.38;4.07;;;12.00;99.90;;;;;;5032352;28;20033;-95
2022/07/03 02:45:38;;;;;;;5.68;5.22;;;12.00;99.90;;;;;;5014607;28;20022;-95
2022/07/03 02:48:24;;;;;;;4.82;4.43;;;12.00;99.90;;;;;;5032351;28;20056;-94
2022/07/03 02:50:54;;;;;;;5.05;4.53;;;12.00;99.90;;;;;;5047772;28;20061;-95
2022/07/03 02:53:28;;;;;;;5.33;4.93;;;12.00;99.90;;;;;;5032244;28;20468;-95
2022/07/03 02:56:05;;;;;;;5.25;4.85;;;12.00;99.90;;;;;;5031052;28;20065;-94
2022/07/03 02:58:31;;;;;;;6.03;5.43;;;12.00;99.90;;;;;;5031276;28;20033;-94
2022/07/03 03:01:07;;;;;;;6.50;6.00;;;11.90;99.90;;;;;;5044125;28;20105;-95
2022/07/03 03:03:34;;;;;;;6.18;5.57;;;11.90;99.90;;;;;;5048405;28;20021;-93
2022/07/03 03:06:07;;;;;;;6.78;5.35;;;11.90;99.90;;;;;;5032420;28;20029;-95
2022/07/03 03:08:47;;;;;;;5.43;4.97;;;11.90;99.90;;;;;;5028308;28;20041;-94
2022/07/03 03:11:21;;;;;;;6.05;5.47;;;11.90;99.90;;;;;;5024621;28;20021;-93
2022/07/03 03:13:50;;;;;;;6.10;5.60;;;11.80;99.90;;;;;;5021386;28;20029;-95
2022/07/03 03:16:16;;;;;;;6.50;6.00;;;11.80;99.90;;;;;;5040574;28;20168;-95
2022/07/03 03:18:41;;;;;;;5.93;5.38;;;11.70;99.90;;;;;;5038274;28;20068;-95
2022/07/03 03:21:15;;;;;;;7.00;6.45;;;11.70;99.90;;;;;;5045500;28;20021;-95
2022/07/03 03:23:51;;;;;;;6.20;5.70;;;11.60;99.90;;;;;;5038505;28;20026;-95
2022/07/03 03:26:24;;;;;;;5.93;5.53;;;11.60;99.90;;;;;;5036650;28;20489;-94
2022/07/03 03:28:51;;;;;;;6.70;6.10;;;11.60;99.90;;;;;;5033763;28;20038;-94
2022/07/03 03:31:18;;;;;;;7.05;6.53;;;11.60;99.90;;;;;;5037880;28;20053;-94
2022/07/03 03:33:46;;;;;;;5.78;5.38;;;11.70;99.90;;;;;;5037837;28;20103;-94
2022/07/03 03:36:15;;;;;;;6.03;5.63;;;11.70;99.90;;;;;;5035809;28;20025;-94
2022/07/03 03:38:41;;;;;;;5.68;5.28;;;11.70;99.90;;;;;;5037762;28;20038;-94
2022/07/03 03:41:08;;;;;;;5.72;5.22;;;11.80;99.90;;;;;;5049434;28;20470;-94
2022/07/03 03:43:34;;;;;;;5.75;5.25;;;11.80;99.90;;;;;;5039905;28;21047;-94
2022/07/03 03:46:01;;;;;;;6.45;5.95;;;11.80;99.90;;;;;;5046168;28;20038;-94
2022/07/03 03:48:27;;;;;;;6.65;6.15;;;11.90;99.90;;;;;;5035534;28;20053;-94
2022/07/03 03:50:57;;;;;;;5.78;5.35;;;11.90;99.90;;;;;;5037182;28;20018;-94
2022/07/03 03:53:24;;;;;;;6.65;6.05;;;11.90;99.90;;;;;;5035624;28;20033;-95
2022/07/03 03:55:59;;;;;;;6.75;6.15;;;11.90;99.90;;;;;;5035693;28;20540;-95
2022/07/03 03:58:25;;;;;;;6.38;5.80;;;12.00;99.90;;;;;;5033886;28;20033;-94
2022/07/03 04:00:52;;;;;;;5.95;5.45;;;12.00;99.90;;;;;;5035981;28;20109;-94
2022/07/03 04:03:18;;;;;;;6.43;5.95;;;12.00;99.90;;;;;;5036080;28;20045;-93
2022/07/03 04:05:44;;;;;;;6.88;6.05;;;12.10;99.90;;;;;;5036232;28;20056;-94
2022/07/03 04:08:10;;;;;;;5.70;5.30;;;12.10;99.90;;;;;;5034558;28;20030;-94
2022/07/03 04:10:36;;;;;;;6.43;5.82;;;12.10;99.90;;;;;;5036570;28;20038;-94
2022/07/03 04:13:01;;;;;;;5.25;4.85;;;12.10;99.90;;;;;;5036523;28;20034;-93
2022/07/03 04:15:27;;;;;;;6.10;5.60;;;12.10;99.90;;;;;;5041222;28;20025;-94
2022/07/03 04:17:53;;;;;;;6.05;5.47;;;12.20;99.90;;;;;;5038722;28;20029;-94
2022/07/03 04:20:19;;;;;;;5.57;5.18;;;12.20;99.90;;;;;;5036343;28;20029;-94
2022/07/03 04:22:44;;;;;;;6.63;6.03;;;12.30;99.90;;;;;;5045384;28;20026;-94
2022/07/03 04:25:10;;;;;;;5.45;5.05;;;12.30;99.90;;;;;;5046377;28;20057;-94
2022/07/03 04:27:36;;;;;;;5.18;4.75;;;12.40;99.90;;;;;;5041974;28;20056;-94
2022/07/03 04:30:01;;;;;;;6.97;6.30;;;12.50;99.90;;;;;;5036319;28;20121;-93
2022/07/03 04:32:27;;;;;;;6.20;5.35;;;12.60;99.90;;;;;;5035269;28;20029;-94
2022/07/03 04:34:53;;;;;;;5.35;4.95;;;12.70;99.90;;;;;;5031764;28;20101;-94
2022/07/03 04:37:18;;;;;;;15.38;5.50;;;12.70;99.90;;;;;;5035081;28;20036;-93
2022/07/03 04:39:44;;;;;;;6.60;6.00;;;12.90;99.90;;;;;;5035259;28;20030;-94
2022/07/03 04:42:09;;;;;;;5.53;5.05;;;13.00;99.90;;;;;;5031104;28;20033;-94
2022/07/03 04:44:35;;;;;;;5.13;4.82;;;13.10;99.90;;;;;;5036305;28;20041;-94
2022/07/03 04:47:01;;;;;;;5.18;4.78;;;13.20;99.90;;;;;;5031317;28;20033;-93
2022/07/03 04:49:27;;;;;;;5.28;4.88;;;13.30;99.90;;;;;;5028731;28;20413;-93
2022/07/03 04:51:53;;;;;;;4.88;4.47;;;13.40;99.90;;;;;;5033972;28;20025;-93
2022/07/03 04:54:19;;;;;;;5.40;5.03;;;13.50;99.90;;;;;;5035745;28;20076;-94
2022/07/03 04:56:44;;;;;;;6.20;5.57;;;13.60;99.90;;;;;;5036067;28;20017;-94
2022/07/03 04:59:10;;;;;;;5.45;4.93;;;13.70;99.90;;;;;;5035538;28;20029;-93
2022/07/03 05:01:36;;;;;;;6.07;5.57;;;13.80;99.90;;;;;;5035147;28;20168;-93
2022/07/03 05:04:01;;;;;;;5.95;5.55;;;14.00;99.90;;;;;;5033835;28;20041;-94
2022/07/03 05:06:27;;;;;;;5.80;5.40;;;14.10;99.90;;;;;;5035275;28;20021;-93
2022/07/03 05:08:53;;;;;;;5.03;4.63;;;14.20;99.90;;;;;;5035858;28;20029;-94
2022/07/03 05:11:18;;;;;;;4.55;4.03;;;14.30;99.90;;;;;;5033308;28;20116;-94
2022/07/03 05:13:44;;;;;;;6.18;4.78;;;14.50;99.90;;;;;;5033659;28;20025;-93
2022/07/03 05:16:10;;;;;;;11.93;4.57;;;14.80;99.90;;;;;;5035514;28;20068;-94
2022/07/03 05:18:35;;;;;;;3.97;3.67;;;15.70;99.90;;;;;;5037144;28;20040;-94
2022/07/03 05:21:02;;;;;;;10.88;2.83;;;17.10;99.90;;;;;;5033569;28;20032;-94
2022/07/03 05:28:33;;;;;;;2.65;2.35;;;21.70;95.30;;;;;;5032148;28;20044;-89
2022/07/03 05:30:59;;;;;;;2.55;2.15;;;23.30;88.00;;;;;;5033692;28;20116;-91
2022/07/03 05:33:24;;;;;;;2.10;1.80;;;24.70;81.10;;;;;;5031449;28;20021;-88
2022/07/03 05:35:50;;;;;;;2.30;2.10;;;26.00;73.30;;;;;;5023418;28;20025;-90
2022/07/03 05:39:31;;;;;;;1.90;1.80;;;27.10;65.90;;;;;;5025319;28;20121;-90
2022/07/03 05:41:04;;;;;;;1.80;1.70;;;27.40;62.30;;;;;;5018114;28;20485;-91
2022/07/03 05:43:30;;;;;;;1.75;1.65;;;27.80;60.00;;;;;;5014088;28;20040;-88
2022/07/03 05:45:56;;;;;;;2.20;1.50;;;28.40;59.30;;;;;;5017874;28;20034;-89
2022/07/03 05:48:21;;;;;;;2.13;1.45;;;28.40;58.50;;;;;;5016996;28;20389;-89
2022/07/03 05:50:47;;;;;;;1.60;1.50;;;28.80;56.20;;;;;;5034407;28;20026;-89
2022/07/03 05:53:13;;;;;;;2.20;2.00;;;28.10;57.70;;;;;;5012844;28;20484;-90
2022/07/03 05:55:38;;;;;;;1.75;1.63;;;28.20;58.40;;;;;;5015578;28;20022;-90
2022/07/03 05:58:04;;;;;;;3.53;2.28;;;28.00;57.40;;;;;;5018743;28;20393;-91
2022/07/03 06:00:30;;;;;;;1.95;1.65;;;28.20;56.60;;;;;;4996763;28;20014;-90
2022/07/03 06:02:56;;;;;;;1.40;1.30;;;28.10;56.70;;;;;;5027372;28;20096;-89
2022/07/03 06:05:21;;;;;;;1.60;1.50;;;27.80;57.30;;;;;;5018225;28;20060;-90
2022/07/03 06:07:47;;;;;;;1.65;1.20;;;27.10;56.40;;;;;;5013955;28;20044;-93
2022/07/03 06:10:13;;;;;;;6.57;1.38;;;26.90;57.10;;;;;;5005149;28;20161;-93
2022/07/03 06:12:38;;;;;;;3.35;1.75;;;27.50;59.10;;;;;;5012578;28;20109;-93
2022/07/03 06:15:05;;;;;;;5.00;1.30;;;27.80;57.00;;;;;;5006963;28;20478;-93
2022/07/03 06:17:30;;;;;;;1.98;1.50;;;27.70;57.40;;;;;;5038792;28;20099;-94
2022/07/03 06:19:56;;;;;;;2.72;1.30;;;27.30;56.80;;;;;;5011651;28;20659;-94
2022/07/03 06:22:22;;;;;;;4.18;1.40;;;27.40;57.40;;;;;;5018659;28;20551;-93
2022/07/03 06:24:47;;;;;;;1.45;1.35;;;27.50;56.40;;;;;;5026186;28;20052;-93
2022/07/03 06:27:13;;;;;;;2.20;1.35;;;27.10;56.20;;;;;;5016271;28;20510;-92
2022/07/03 06:29:38;;;;;;;3.17;1.38;;;27.20;57.30;;;;;;5034018;28;20041;-94
2022/07/03 06:32:04;;;;;;;1.45;1.30;;;27.40;56.30;;;;;;5008015;28;20028;-93
2022/07/03 06:34:30;;;;;;;1.77;1.40;;;27.40;55.40;;;;;;5023579;28;20114;-91
2022/07/03 06:36:56;;;;;;;2.80;1.50;;;26.90;56.50;;;;;;5031454;28;20026;-93
2022/07/03 06:39:21;;;;;;;1.63;1.52;;;27.40;57.30;;;;;;5028530;28;20026;-93
2022/07/03 06:41:47;;;;;;;1.73;1.23;;;27.50;55.40;;;;;;5025131;28;20018;-93
2022/07/03 06:44:13;;;;;;;2.40;1.50;;;27.70;55.50;;;;;;5017310;28;20030;-92
2022/07/03 06:46:38;;;;;;;1.55;1.45;;;28.00;55.00;;;;;;5023088;28;20030;-93
2022/07/03 06:49:04;;;;;;;2.20;1.27;;;28.10;56.20;;;;;;5003312;28;20091;-94
2022/07/03 06:51:29;;;;;;;1.98;1.80;;;28.30;56.00;;;;;;5022932;28;20021;-93
2022/07/03 06:53:55;;;;;;;1.95;1.40;;;28.20;54.10;;;;;;5018815;28;20029;-92
2022/07/03 06:56:21;;;;;;;2.53;1.30;;;28.00;54.70;;;;;;5019347;28;20053;-94
2022/07/03 06:58:47;;;;;;;1.65;1.45;;;28.10;55.20;;;;;;5009155;28;20068;-94
2022/07/03 07:01:12;;;;;;;1.55;1.40;;;29.00;55.20;;;;;;4996298;28;20076;-94
2022/07/03 07:03:38;;;;;;;1.67;1.55;;;29.50;52.10;;;;;;5030262;28;20079;-92
2022/07/03 07:06:03;;;;;;;4.10;1.48;;;29.30;51.40;;;;;;5018709;28;20088;-93
2022/07/03 07:08:29;;;;;;;2.38;1.30;;;29.60;51.90;;;;;;5001877;28;20117;-93
2022/07/03 07:10:55;;;;;;;1.95;1.35;;;29.70;52.10;;;;;;5001808;28;20456;-92
2022/07/03 07:13:20;;;;;;;2.85;1.30;;;29.40;51.50;;;;;;5002111;28;20026;-93
2022/07/03 07:15:46;;;;;;;1.42;1.33;;;29.30;52.10;;;;;;5002152;28;20049;-93
2022/07/03 07:18:12;;;;;;;1.67;1.40;;;29.20;52.00;;;;;;5012588;28;20029;-94
2022/07/03 07:20:37;;;;;;;7.25;1.63;;;28.70;52.70;;;;;;5029362;28;20065;-94
2022/07/03 07:23:03;;;;;;;1.58;1.48;;;28.50;53.50;;;;;;5032978;28;20033;-95
2022/07/03 07:25:29;;;;;;;2.28;1.33;;;27.30;54.90;;;;;;5014598;28;20041;-94
2022/07/03 07:27:54;;;;;;;1.92;1.60;;;27.10;57.20;;;;;;5030849;28;20032;-95
2022/07/03 07:30:20;;;;;;;1.55;1.45;;;27.00;57.00;;;;;;5029206;28;20373;-94
2022/07/03 07:32:46;;;;;;;3.55;1.50;;;26.50;57.90;;;;;;5031148;28;20025;-96
2022/07/03 07:35:11;;;;;;;2.42;1.33;;;26.70;58.10;;;;;;5021460;28;20034;-93
2022/07/03 07:37:37;;;;;;;3.05;1.40;;;27.10;58.10;;;;;;5041698;28;20125;-95
2022/07/03 07:40:04;;;;;;;1.30;1.20;;;28.20;56.20;;;;;;5007185;28;20021;-95
2022/07/03 07:42:30;;;;;;;3.55;1.10;;;29.30;54.00;;;;;;5010262;28;20509;-95
2022/07/03 07:44:55;;;;;;;1.50;1.30;;;30.10;51.80;;;;;;5022182;28;20125;-94
2022/07/03 07:47:21;;;;;;;1.55;1.23;;;31.00;50.30;;;;;;5014008;28;20036;-95
2022/07/03 07:49:47;;;;;;;2.08;1.15;;;31.60;49.40;;;;;;5003730;28;20504;-93
2022/07/03 07:52:13;;;;;;;1.00;1.00;;;32.80;48.80;;;;;;5017170;28;20445;-95
2022/07/03 07:54:38;;;;;;;1.40;1.08;;;33.50;46.60;;;;;;5008483;28;20053;-94
2022/07/03 07:57:04;;;;;;;2.45;1.10;;;33.40;45.50;;;;;;5009192;28;20022;-94
2022/07/03 07:59:30;;;;;;;1.25;1.15;;;33.10;46.70;;;;;;5003711;28;20120;-94
2022/07/03 08:07:24;;;;;;;1.27;1.02;;;34.00;45.80;;;;;;5026764;28;20083;-94
2022/07/03 08:09:52;;;;;;;1.58;1.00;;;34.30;44.50;;;;;;5032043;28;20029;-94
2022/07/03 08:12:19;;;;;;;1.20;1.00;;;34.60;44.10;;;;;;5010811;28;20075;-95
2022/07/03 08:14:44;;;;;;;1.30;1.20;;;35.00;44.30;;;;;;5014133;28;20018;-94
2022/07/03 08:17:10;;;;;;;1.15;0.90;;;35.80;42.10;;;;;;5012775;28;20030;-95
2022/07/03 08:19:36;;;;;;;1.27;0.90;;;36.30;41.40;;;;;;5025548;28;20029;-94
2022/07/03 08:22:01;;;;;;;0.93;0.80;;;37.40;40.90;;;;;;5009905;28;20018;-94
2022/07/03 08:24:27;;;;;;;0.70;0.70;;;37.50;40.00;;;;;;5014450;28;20022;-95
2022/07/03 08:26:53;;;;;;;1.20;0.80;;;37.30;38.60;;;;;;5018897;28;20111;-94
2022/07/03 08:29:19;;;;;;;1.73;0.90;;;37.40;39.90;;;;;;5032269;28;20033;-94
2022/07/03 08:31:44;;;;;;;0.98;0.70;;;37.60;39.10;;;;;;5016469;28;20033;-94
2022/07/03 08:34:13;;;;;;;1.00;0.70;;;38.30;39.80;;;;;;5015508;28;20026;-94
2022/07/03 08:36:41;;;;;;;2.72;0.75;;;39.50;38.80;;;;;;5037029;28;20030;-94
2022/07/03 08:39:07;;;;;;;0.75;0.63;;;40.80;36.20;;;;;;5035648;28;20030;-94
2022/07/03 08:41:35;;;;;;;0.85;0.63;;;41.90;34.40;;;;;;5016852;28;20502;-93
2022/07/03 08:44:02;;;;;;;1.70;0.55;;;42.00;32.60;;;;;;5026085;28;20053;-94
2022/07/03 08:46:31;;;;;;;1.92;0.70;;;42.10;33.60;;;;;;5030731;28;20397;-95
2022/07/03 08:49:00;;;;;;;2.13;0.60;;;42.10;33.20;;;;;;5015468;28;20037;-93
2022/07/03 08:51:27;;;;;;;2.17;0.60;;;41.90;33.70;;;;;;5009958;28;20022;-93
2022/07/03 08:53:57;;;;;;;1.25;0.60;;;41.80;33.10;;;;;;5016834;28;20056;-93
2022/07/03 08:56:23;;;;;;;4.80;0.73;;;41.60;33.90;;;;;;5019742;28;20511;-95
2022/07/03 08:58:49;;;;;;;1.63;0.70;;;42.20;33.60;;;;;;5029301;28;20034;-94
2022/07/03 09:01:17;;;;;;;1.88;0.63;;;42.70;33.70;;;;;;5029177;28;20041;-93
2022/07/03 09:03:43;;;;;;;0.60;0.60;;;42.90;33.00;;;;;;5045790;28;20052;-94
2022/07/03 09:06:09;;;;;;;1.30;0.60;;;43.10;32.70;;;;;;5037559;28;20117;-93
2022/07/03 09:08:37;;;;;;;1.85;0.57;;;42.10;32.50;;;;;;5010886;28;20101;-93
2022/07/03 09:11:03;;;;;;;2.28;0.60;;;42.00;32.80;;;;;;5012101;28;20052;-93
2022/07/03 09:13:29;;;;;;;0.70;0.52;;;41.90;33.90;;;;;;5004208;28;20046;-93
2022/07/03 09:15:55;;;;;;;3.00;0.70;;;41.80;33.60;;;;;;5022935;28;20033;-94
2022/07/03 09:18:42;;;;;;;0.95;0.50;;;41.30;33.70;;;;;;5027893;28;20026;-93
2022/07/03 09:21:11;;;;;;;0.77;0.77;;;41.10;33.90;;;;;;5009901;28;20535;-93
2022/07/03 09:23:42;;;;;;;1.50;0.50;;;40.50;34.40;;;;;;5035795;28;20041;-94
2022/07/03 09:26:13;;;;;;;0.73;0.60;;;40.50;33.60;;;;;;5017646;28;20068;-94
2022/07/03 09:28:54;;;;;;;0.57;0.52;;;40.10;34.20;;;;;;5010348;28;20045;-94
2022/07/03 09:31:24;;;;;;;0.82;0.65;;;39.80;35.40;;;;;;5040216;28;20520;-94
2022/07/03 09:34:04;;;;;;;0.57;0.50;;;40.10;36.30;;;;;;5005708;28;20041;-94
2022/07/03 09:36:47;;;;;;;1.38;0.40;;;40.50;34.50;;;;;;5020531;28;20052;-92
2022/07/03 09:39:21;;;;;;;0.82;0.70;;;41.30;35.20;;;;;;5008166;28;20044;-93
2022/07/03 09:42:06;;;;;;;0.65;0.50;;;40.90;33.40;;;;;;5033571;28;20042;-93
2022/07/03 09:44:35;;;;;;;1.95;0.80;;;40.70;33.80;;;;;;5009472;28;20076;-91
2022/07/03 09:47:10;;;;;;;1.23;0.90;;;41.00;34.00;;;;;;5031881;28;20030;-94
2022/07/03 09:49:55;;;;;;;0.50;0.50;;;42.40;33.00;;;;;;5031344;28;20029;-93
2022/07/03 09:52:42;;;;;;;0.93;0.50;;;43.50;30.10;;;;;;5026083;28;20038;-95
2022/07/03 09:55:10;;;;;;;1.52;0.50;;;43.40;30.90;;;;;;5029706;28;20040;-93
2022/07/03 09:57:42;;;;;;;1.70;0.60;;;42.80;32.10;;;;;;5029679;28;20049;-93
2022/07/03 10:00:31;;;;;;;1.23;0.52;;;41.20;34.50;;;;;;5010445;28;20022;-93
2022/07/03 10:03:08;;;;;;;1.65;0.60;;;39.30;36.10;;;;;;5040535;28;20037;-93
2022/07/03 10:05:37;;;;;;;3.20;0.50;;;38.90;37.60;;;;;;5009301;28;20026;-93
2022/07/03 10:08:18;;;;;;;1.25;0.50;;;39.40;37.10;;;;;;5007291;28;20065;-92
2022/07/03 10:10:48;;;;;;;0.50;0.50;;;40.00;33.10;;;;;;5020133;28;20029;-93
2022/07/03 10:13:15;;;;;;;0.65;0.30;;;40.80;32.40;;;;;;5023945;28;20017;-93
2022/07/03 10:15:42;;;;;;;0.20;0.20;;;41.10;30.00;;;;;;5033612;28;20026;-93
2022/07/03 10:18:10;;;;;;;1.77;0.20;;;41.50;29.80;;;;;;5032174;28;20029;-94
2022/07/03 10:20:45;;;;;;;0.22;0.22;;;42.30;28.30;;;;;;5013700;28;20116;-94
2022/07/03 10:23:11;;;;;;;3.05;0.30;;;43.40;27.30;;;;;;5016319;28;20026;-94
2022/07/03 10:25:41;;;;;;;1.30;0.30;;;43.90;27.20;;;;;;5025274;28;20041;-94
2022/07/03 10:28:08;;;;;;;0.75;0.30;;;44.60;26.30;;;;;;5024673;28;20038;-92
2022/07/03 10:30:34;;;;;;;0.75;0.30;;;45.00;26.70;;;;;;5024150;28;20044;-93
2022/07/03 10:33:00;;;;;;;0.30;0.30;;;45.30;26.70;;;;;;5040675;28;20005;-95
2022/07/03 10:35:38;;;;;;;0.30;0.30;;;45.70;25.70;;;;;;5026685;28;20034;-92
2022/07/03 10:38:22;;;;;;;0.20;0.20;;;46.00;26.10;;;;;;5031282;28;20022;-94
2022/07/03 10:46:32;;;;;;;0.30;0.20;;;45.60;26.60;;;;;;5034266;28;20049;-93
2022/07/03 10:48:59;;;;;;;0.47;0.30;;;45.50;26.30;;;;;;5009392;28;20041;-93
2022/07/03 10:51:27;;;;;;;1.15;0.35;;;45.40;26.30;;;;;;5026996;28;20780;-91
2022/07/03 10:54:12;;;;;;;0.30;0.20;;;44.20;26.20;;;;;;5024817;28;20095;-93
2022/07/03 10:57:00;;;;;;;1.13;0.35;;;43.50;27.30;;;;;;5003374;28;20401;-93
2022/07/03 10:59:32;;;;;;;0.57;0.20;;;43.10;27.90;;;;;;5045170;28;20025;-92
2022/07/03 11:02:35;;;;;;;2.30;0.20;;;43.20;27.20;;;;;;5044464;28;20033;-92
2022/07/03 11:05:01;;;;;;;1.88;0.40;;;42.90;26.90;;;;;;5043649;28;20050;-90
2022/07/03 11:07:35;;;;;;;0.63;0.30;;;42.60;28.10;;;;;;5043999;28;20436;-90
2022/07/03 11:10:12;;;;;;;1.05;0.30;;;42.50;28.50;;;;;;5027519;28;20113;-92
2022/07/03 11:12:56;;;;;;;0.40;0.40;;;41.70;28.90;;;;;;5038995;28;20025;-90
2022/07/03 11:15:33;;;;;;;1.05;0.30;;;40.50;29.10;;;;;;5030661;28;20101;-91
2022/07/03 11:18:07;;;;;;;2.05;0.50;;;39.60;30.40;;;;;;5026436;28;20032;-90
2022/07/03 11:20:36;;;;;;;0.32;0.30;;;38.80;32.70;;;;;;5018461;28;20126;-90
2022/07/03 11:23:26;;;;;;;0.40;0.40;;;38.20;30.80;;;;;;5018861;28;20046;-94
2022/07/03 11:25:54;;;;;;;0.30;0.30;;;38.50;30.50;;;;;;5043830;28;20038;-91
2022/07/03 11:28:32;;;;;;;1.23;0.40;;;38.90;30.10;;;;;;5009355;28;20396;-94
2022/07/03 11:31:18;;;;;;;1.60;0.50;;;39.00;29.90;;;;;;5025028;28;20116;-93
2022/07/03 11:33:47;;;;;;;1.65;0.40;;;39.40;30.30;;;;;;5023703;28;20375;-93
2022/07/03 11:36:16;;;;;;;0.57;0.30;;;39.60;28.80;;;;;;5027596;28;20018;-93
2022/07/03 11:38:43;;;;;;;0.45;0.40;;;39.50;28.90;;;;;;5037406;28;20120;-91
2022/07/03 11:41:16;;;;;;;0.70;0.47;;;39.30;29.40;;;;;;5003254;28;20429;-93
2022/07/03 11:43:48;;;;;;;2.10;0.60;;;39.20;30.00;;;;;;5037793;28;20030;-91
2022/07/03 11:46:18;;;;;;;0.63;0.43;;;39.00;31.00;;;;;;5026024;28;20036;-91
2022/07/03 11:48:44;;;;;;;;;;;38.50;31.40;;;;;;5013533;28;20034;-94
2022/07/03 11:51:09;;;;;;;1.48;0.43;;;38.10;32.40;;;;;;5026433;28;19909;-90
2022/07/03 11:53:37;;;;;;;0.50;0.50;;;37.70;32.50;;;;;;5034785;28;20066;-90
2022/07/03 11:56:05;;;;;;;0.45;0.30;;;37.50;31.40;;;;;;5033164;28;20033;-89
2022/07/03 11:58:41;;;;;;;0.45;0.40;;;37.40;33.80;;;;;;5010704;28;20033;-93
2022/07/03 12:01:09;;;;;;;0.70;0.60;;;37.20;33.70;;;;;;5021506;28;20184;-92
2022/07/03 12:03:34;;;;;;;1.65;0.50;;;37.10;32.00;;;;;;5025389;28;20014;-91
2022/07/03 12:06:00;;;;;;;1.38;0.40;;;36.90;33.20;;;;;;5011029;28;20022;-90
2022/07/03 12:08:28;;;;;;;3.05;0.40;;;36.80;32.00;;;;;;5027484;28;20035;-91
2022/07/03 12:11:07;;;;;;;1.65;0.60;;;36.60;33.50;;;;;;5022013;28;20034;-92
2022/07/03 12:13:33;;;;;;;0.45;0.40;;;37.00;32.60;;;;;;5039117;28;20030;-92
2022/07/03 12:16:17;;;;;;;0.93;0.50;;;37.10;32.60;;;;;;5020629;28;20026;-90
2022/07/03 12:18:46;;;;;;;0.50;0.50;;;37.20;31.10;;;;;;5024935;28;20454;-92
2022/07/03 12:21:12;;;;;;;0.43;0.43;;;37.20;31.40;;;;;;5020697;28;20014;-92
2022/07/03 12:23:47;;;;;;;0.57;0.50;;;37.30;32.70;;;;;;5024827;28;20026;-91
2022/07/03 12:26:14;;;;;;;2.10;0.52;;;37.00;33.10;;;;;;5015438;28;20181;-92
2022/07/03 12:28:40;;;;;;;0.47;0.40;;;36.70;33.60;;;;;;5022334;28;20091;-92
2022/07/03 12:31:07;;;;;;;0.77;0.35;;;36.50;34.40;;;;;;5017137;28;20052;-94
2022/07/03 12:33:35;;;;;;;0.95;0.50;;;36.60;34.20;;;;;;5024390;28;20072;-93
2022/07/03 12:36:08;;;;;;;0.50;0.50;;;36.90;33.20;;;;;;5032846;28;20052;-93
2022/07/03 12:38:36;;;;;;;1.27;0.40;;;37.20;33.20;;;;;;5022967;28;20034;-92
2022/07/03 12:41:03;;;;;;;0.40;0.40;;;37.50;32.40;;;;;;5035398;28;20396;-94
2022/07/03 12:43:39;;;;;;;1.23;0.70;;;37.40;33.00;;;;;;5049354;28;20098;-92
2022/07/03 12:46:22;;;;;;;0.40;0.40;;;37.50;32.60;;;;;;5034889;28;20036;-92
2022/07/03 12:48:49;;;;;;;0.60;0.50;;;37.40;34.00;;;;;;5010749;28;20053;-93
2022/07/03 12:51:16;;;;;;;2.35;0.40;;;37.40;34.30;;;;;;5008980;28;20029;-92
2022/07/03 12:53:42;;;;;;;0.40;0.40;;;37.50;33.10;;;;;;5011428;28;20442;-91
2022/07/03 12:56:10;;;;;;;1.30;0.50;;;37.60;33.90;;;;;;5012999;28;20038;-92
2022/07/03 13:01:33;;;;;;;0.80;0.50;;;36.70;33.20;;;;;;5031510;28;20034;-90
2022/07/03 13:04:00;;;;;;;0.93;0.40;;;36.50;34.10;;;;;;5031023;28;20489;-91
2022/07/03 13:06:26;;;;;;;0.63;0.40;;;36.60;33.10;;;;;;5014412;28;20041;-90
2022/07/03 13:08:58;;;;;;;0.55;0.50;;;36.80;34.20;;;;;;5030178;28;20022;-90
2022/07/03 13:11:36;;;;;;;0.82;0.30;;;37.10;34.00;;;;;;5029629;28;20025;-94
2022/07/03 13:14:15;;;;;;;0.68;0.40;;;37.30;34.20;;;;;;5016501;28;20029;-92
2022/07/03 13:16:44;;;;;;;0.38;0.38;;;37.20;33.30;;;;;;5035498;28;20034;-92
2022/07/03 13:19:29;;;;;;;0.47;0.47;;;37.30;32.20;;;;;;5043866;28;20018;-91
2022/07/03 13:21:56;;;;;;;1.73;0.50;;;37.30;32.70;;;;;;5026462;28;20026;-90